Terminal Aerodrome Forecast
Issued by NWS Sioux Falls, SD

Home | Current Version | Previous Version | Graphics & Text | Print | Product List | Glossary On
Versions: 1 2 3 4 5 6 7 8 9 10 11 12 13 14 15 16 17 18 19 20 21 22 23 24 25 26 27 28 29 30 31 32 33 34 35 36 37 38 39 40 41 42 43 44 45 46 47 48 49 50
000
FTUS43 KFSD 262003 AAA
TAFSUX
TAF AMD
KSUX 262003Z 2620/2718 07015G22KT P6SM SCT030
     FM270000 08016G23KT P6SM VCTS SCT030 BKN060CB
     FM270300 08015G23KT P6SM SHRA BKN030
      TEMPO 2703/2707 5SM TSRA OVC020CB
     FM270700 08019G26KT 5SM SHRA BR OVC010
     FM271200 09015G25KT 3SM SHRA BR OVC006=

USA.gov is the U.S. government's official web portal to all federal, state and local government web resources and services.